Time;durP1;ratioP1;P1;durP2;ratioP2;P2;SDS_P1;SDS_P2;PMS_P1;PMS_P2;Temp;Humidity;BMP_temperature;BMP_pressure;BME280_temperature;BME280_humidity;BME280_pressure;Samples;Min_cycle;Max_cycle;Signal;HPM_P1;HPM_P2
2023/03/09 00:02:22;;;;;;;21.27;12.13;;;1.30;99.90;;;;;;5049057;28;20048;-45
2023/03/09 00:04:48;;;;;;;22.48;12.05;;;1.30;99.90;;;;;;5048416;28;20404;-46
2023/03/09 00:07:13;;;;;;;20.02;11.40;;;1.30;99.90;;;;;;5047502;28;20522;-46
2023/03/09 00:09:39;;;;;;;21.40;12.05;;;1.30;99.90;;;;;;5048825;28;20045;-45
2023/03/09 00:12:04;;;;;;;21.60;12.70;;;1.30;99.90;;;;;;5047224;28;20055;-45
2023/03/09 00:14:30;;;;;;;22.67;12.35;;;1.30;99.90;;;;;;5047743;28;20021;-45
2023/03/09 00:16:55;;;;;;;24.15;12.80;;;1.30;99.90;;;;;;5048676;28;20036;-46
2023/03/09 00:19:26;;;;;;;23.77;13.07;;;1.30;99.90;;;;;;5047413;28;20082;-48
2023/03/09 00:21:55;;;;;;;21.88;12.70;;;1.30;99.90;;;;;;5048911;28;20025;-45
2023/03/09 00:24:24;;;;;;;21.27;12.02;;;1.20;99.90;;;;;;5048816;28;20401;-45
2023/03/09 00:26:52;;;;;;;23.70;12.25;;;1.20;99.90;;;;;;5048273;28;20017;-48
2023/03/09 00:29:18;;;;;;;23.05;12.50;;;1.20;99.90;;;;;;5048295;28;20013;-46
2023/03/09 00:31:44;;;;;;;21.88;11.95;;;1.20;99.90;;;;;;5047304;28;20032;-45
2023/03/09 00:34:11;;;;;;;24.67;13.57;;;1.20;99.90;;;;;;5048631;28;20021;-46
2023/03/09 00:36:37;;;;;;;26.15;13.65;;;1.20;99.90;;;;;;5048481;28;20017;-45
2023/03/09 00:39:03;;;;;;;26.25;13.35;;;1.20;99.90;;;;;;5048769;28;20146;-46
2023/03/09 00:41:30;;;;;;;24.17;13.25;;;1.20;99.90;;;;;;5048511;28;20025;-47
2023/03/09 00:43:57;;;;;;;24.33;12.55;;;1.10;99.90;;;;;;5048207;28;20017;-47
2023/03/09 00:46:22;;;;;;;21.92;12.38;;;1.20;99.90;;;;;;5048158;28;20033;-46
2023/03/09 00:48:49;;;;;;;24.77;13.18;;;1.20;99.90;;;;;;5048289;28;20036;-45
2023/03/09 00:51:15;;;;;;;23.73;13.30;;;1.20;99.90;;;;;;5048480;28;20100;-45
2023/03/09 00:53:40;;;;;;;23.83;13.10;;;1.10;99.90;;;;;;5048481;28;20108;-46
2023/03/09 00:56:09;;;;;;;24.48;13.52;;;1.10;99.90;;;;;;5048319;28;20080;-47
2023/03/09 00:58:35;;;;;;;25.08;12.45;;;1.20;99.90;;;;;;5047842;28;20554;-46
2023/03/09 01:01:00;;;;;;;23.08;11.93;;;1.20;99.90;;;;;;5048483;28;20032;-46
2023/03/09 01:03:26;;;;;;;25.83;14.13;;;1.10;99.90;;;;;;5048150;28;20494;-45
2023/03/09 01:05:52;;;;;;;23.50;13.05;;;1.20;99.90;;;;;;5048068;28;20021;-47
2023/03/09 01:08:18;;;;;;;24.75;13.07;;;1.20;99.90;;;;;;5048188;28;20017;-46
2023/03/09 01:10:44;;;;;;;26.52;14.68;;;1.10;99.90;;;;;;5048193;28;20390;-45
2023/03/09 01:13:12;;;;;;;27.27;13.93;;;1.10;99.90;;;;;;5047812;28;20025;-46
2023/03/09 01:15:38;;;;;;;25.17;13.15;;;1.10;99.90;;;;;;5047859;28;20025;-46
2023/03/09 01:18:03;;;;;;;29.77;14.10;;;1.10;99.90;;;;;;5049172;28;20032;-46
2023/03/09 01:20:29;;;;;;;25.63;14.38;;;1.10;99.90;;;;;;5051879;28;20108;-45
2023/03/09 01:22:54;;;;;;;25.35;14.18;;;1.10;99.90;;;;;;5052096;28;20048;-46
2023/03/09 01:25:20;;;;;;;23.58;14.10;;;1.10;99.90;;;;;;5051819;28;20464;-48
2023/03/09 01:27:46;;;;;;;31.35;15.75;;;1.10;99.90;;;;;;5050649;28;20590;-46
2023/03/09 01:30:11;;;;;;;31.05;16.45;;;1.10;99.90;;;;;;5070389;28;20028;-45
2023/03/09 01:32:37;;;;;;;30.17;16.27;;;1.10;99.90;;;;;;5070413;28;20032;-47
2023/03/09 01:35:04;;;;;;;31.27;16.98;;;1.10;99.90;;;;;;5071429;28;20027;-46
2023/03/09 01:37:30;;;;;;;29.98;16.80;;;1.00;99.90;;;;;;5071609;28;20123;-46
2023/03/09 01:39:55;;;;;;;31.15;16.52;;;1.00;99.90;;;;;;5069929;28;20103;-46
2023/03/09 01:42:21;;;;;;;34.75;17.95;;;1.10;99.90;;;;;;5071603;28;20032;-46
2023/03/09 01:45:11;;;;;;;37.72;19.42;;;1.00;99.90;;;;;;5070947;28;20390;-48
2023/03/09 01:47:37;;;;;;;39.05;19.98;;;1.00;99.90;;;;;;5071276;28;20020;-45
2023/03/09 01:50:04;;;;;;;37.42;19.23;;;1.00;99.90;;;;;;5071512;28;20021;-46
2023/03/09 01:52:33;;;;;;;40.33;21.20;;;1.00;99.90;;;;;;5071364;28;20023;-46
2023/03/09 01:54:58;;;;;;;41.88;20.38;;;1.00;99.90;;;;;;5069767;28;20028;-46
2023/03/09 01:57:34;;;;;;;42.47;21.00;;;1.00;99.90;;;;;;5060374;28;20023;-47
2023/03/09 02:00:06;;;;;;;43.20;21.33;;;1.00;99.90;;;;;;5050977;28;20097;-46
2023/03/09 02:02:35;;;;;;;49.85;23.92;;;1.00;99.90;;;;;;5050853;28;20082;-45
2023/03/09 02:05:05;;;;;;;48.80;22.25;;;1.00;99.90;;;;;;5050592;28;20410;-48
2023/03/09 02:07:34;;;;;;;48.20;22.25;;;1.00;99.90;;;;;;5050855;28;20466;-45
2023/03/09 02:10:11;;;;;;;43.53;22.08;;;1.00;99.90;;;;;;5050869;28;20036;-45
2023/03/09 02:12:38;;;;;;;50.88;23.30;;;1.00;99.90;;;;;;5050876;28;20025;-45
2023/03/09 02:15:04;;;;;;;43.08;22.05;;;1.00;99.90;;;;;;5049770;28;20028;-45
2023/03/09 02:17:30;;;;;;;45.60;21.90;;;1.00;99.90;;;;;;5050937;28;20101;-45
2023/03/09 02:20:08;;;;;;;49.00;22.90;;;1.10;99.90;;;;;;5051428;28;20154;-47
2023/03/09 02:22:38;;;;;;;51.22;23.60;;;1.00;99.90;;;;;;5051102;28;20078;-45
2023/03/09 02:25:28;;;;;;;53.13;23.92;;;1.00;99.90;;;;;;5049393;28;20151;-46
2023/03/09 02:27:54;;;;;;;53.15;24.13;;;1.00;99.90;;;;;;5050608;28;20048;-46
2023/03/09 02:30:21;;;;;;;50.38;23.25;;;0.90;99.90;;;;;;5048469;28;20179;-45
2023/03/09 02:32:46;;;;;;;51.95;23.80;;;0.90;99.90;;;;;;5050466;28;20021;-45
2023/03/09 02:35:12;;;;;;;53.47;24.65;;;1.00;99.90;;;;;;5050319;28;20032;-46
2023/03/09 02:37:39;;;;;;;52.42;25.08;;;0.90;99.90;;;;;;5050641;28;20024;-46
2023/03/09 02:40:28;;;;;;;55.72;25.40;;;1.00;99.90;;;;;;5050419;28;20540;-45
2023/03/09 02:42:54;;;;;;;52.33;25.35;;;0.90;99.90;;;;;;5050260;28;20150;-48
2023/03/09 02:45:21;;;;;;;53.28;24.42;;;1.00;99.90;;;;;;5049762;28;20111;-47
2023/03/09 02:47:47;;;;;;;53.85;25.05;;;1.00;99.90;;;;;;5050560;28;20033;-46
2023/03/09 02:50:13;;;;;;;48.42;24.80;;;1.00;99.90;;;;;;5051023;28;20043;-46
2023/03/09 02:52:39;;;;;;;49.22;24.35;;;1.00;99.90;;;;;;5050357;28;20021;-45
2023/03/09 02:55:05;;;;;;;44.38;22.27;;;1.00;99.90;;;;;;5049815;28;20025;-45
2023/03/09 02:57:31;;;;;;;51.53;23.48;;;1.00;99.90;;;;;;5050114;28;20382;-49
2023/03/09 02:59:57;;;;;;;46.75;22.55;;;1.00;99.90;;;;;;5049789;28;20025;-46
2023/03/09 03:02:22;;;;;;;50.00;23.38;;;1.00;99.90;;;;;;5049980;28;20360;-46
2023/03/09 03:04:48;;;;;;;46.83;22.83;;;1.00;99.90;;;;;;5049582;28;20233;-48
2023/03/09 03:07:13;;;;;;;44.45;23.08;;;1.00;99.90;;;;;;5049891;28;20021;-46
2023/03/09 03:09:39;;;;;;;48.75;24.10;;;1.10;99.90;;;;;;5049851;28;20025;-45
2023/03/09 03:12:05;;;;;;;43.60;22.65;;;1.00;99.90;;;;;;5048272;28;20111;-45
2023/03/09 03:14:30;;;;;;;43.58;22.42;;;1.00;99.90;;;;;;5049912;28;20094;-47
2023/03/09 03:16:56;;;;;;;45.55;23.02;;;1.10;99.90;;;;;;5049498;28;20087;-47
2023/03/09 03:19:22;;;;;;;45.97;21.30;;;1.00;99.90;;;;;;5049886;28;20291;-46
2023/03/09 03:21:48;;;;;;;45.10;22.38;;;1.10;99.90;;;;;;5049594;28;20370;-45
2023/03/09 03:24:14;;;;;;;41.60;20.52;;;1.00;99.90;;;;;;5049572;28;20043;-45
2023/03/09 03:26:40;;;;;;;43.50;21.00;;;1.00;99.90;;;;;;5048960;28;20017;-45
2023/03/09 03:29:05;;;;;;;44.33;22.58;;;1.00;99.90;;;;;;5047143;28;20025;-47
2023/03/09 03:31:31;;;;;;;40.55;20.85;;;1.00;99.90;;;;;;5049654;28;20116;-45
2023/03/09 03:33:57;;;;;;;40.55;20.77;;;1.10;99.90;;;;;;5049755;28;20033;-45
2023/03/09 03:36:22;;;;;;;42.95;21.08;;;1.10;99.90;;;;;;5049115;28;20029;-46
2023/03/09 03:38:48;;;;;;;42.65;20.50;;;1.00;99.90;;;;;;5049277;28;20020;-46
2023/03/09 03:41:13;;;;;;;37.00;20.42;;;1.00;99.90;;;;;;5048828;28;20063;-47
2023/03/09 03:43:39;;;;;;;42.55;20.90;;;1.10;99.90;;;;;;5048921;28;20366;-45
2023/03/09 03:46:04;;;;;;;46.75;20.65;;;1.00;99.90;;;;;;5048771;28;20075;-46
2023/03/09 03:48:30;;;;;;;42.92;20.90;;;1.10;99.90;;;;;;5049169;28;20202;-47
2023/03/09 03:50:56;;;;;;;42.28;21.70;;;1.00;99.90;;;;;;5049432;28;20454;-46
2023/03/09 03:53:21;;;;;;;43.90;21.58;;;1.00;99.90;;;;;;5049046;28;20025;-46
2023/03/09 03:55:48;;;;;;;42.97;20.98;;;1.00;99.90;;;;;;5048895;28;20479;-45
2023/03/09 03:58:13;;;;;;;43.10;20.77;;;1.00;99.90;;;;;;5049087;28;20120;-46
2023/03/09 04:00:39;;;;;;;43.05;21.08;;;1.00;99.90;;;;;;5049308;28;20021;-46
2023/03/09 04:03:05;;;;;;;43.78;21.88;;;1.00;99.90;;;;;;5047942;28;20109;-45
2023/03/09 04:05:31;;;;;;;36.65;18.58;;;1.00;99.90;;;;;;5048824;28;20112;-45
2023/03/09 04:07:56;;;;;;;43.60;22.60;;;1.00;99.90;;;;;;5048798;28;20082;-45
2023/03/09 04:10:23;;;;;;;44.30;21.00;;;1.00;99.90;;;;;;5049057;28;20075;-45
2023/03/09 04:12:49;;;;;;;40.03;19.70;;;1.00;99.90;;;;;;5048480;28;20107;-46
2023/03/09 04:15:15;;;;;;;44.65;20.67;;;1.00;99.90;;;;;;5048583;28;20108;-46
2023/03/09 04:17:41;;;;;;;40.20;19.23;;;1.00;99.90;;;;;;5048583;28;20024;-46
2023/03/09 04:20:07;;;;;;;43.17;22.15;;;1.00;99.90;;;;;;5048617;28;20483;-46
2023/03/09 04:22:33;;;;;;;41.63;21.45;;;1.00;99.90;;;;;;5048947;28;20095;-45
2023/03/09 04:24:58;;;;;;;36.83;18.45;;;1.00;99.90;;;;;;5048716;28;20021;-45
2023/03/09 04:27:24;;;;;;;42.03;20.30;;;1.00;99.90;;;;;;5048838;28;20501;-46
2023/03/09 04:29:49;;;;;;;41.25;19.92;;;1.00;99.90;;;;;;5049003;28;20036;-45
2023/03/09 04:32:15;;;;;;;44.63;21.50;;;1.00;99.90;;;;;;5048682;28;20422;-47
2023/03/09 04:34:40;;;;;;;42.53;20.23;;;1.00;99.90;;;;;;5046906;28;20482;-45
2023/03/09 04:37:06;;;;;;;36.47;19.90;;;1.00;99.90;;;;;;5048602;28;20029;-46
2023/03/09 04:39:31;;;;;;;37.13;19.30;;;1.00;99.90;;;;;;5048535;28;20029;-46
2023/03/09 04:41:57;;;;;;;36.30;18.80;;;1.00;99.90;;;;;;5047820;28;20082;-45
2023/03/09 04:44:22;;;;;;;40.88;20.00;;;1.00;99.90;;;;;;5048132;28;20096;-47
2023/03/09 04:46:48;;;;;;;40.70;19.02;;;1.00;99.90;;;;;;5048607;28;20368;-46
2023/03/09 04:49:13;;;;;;;37.53;18.65;;;1.00;99.90;;;;;;5048484;28;20021;-45
2023/03/09 04:51:39;;;;;;;37.35;18.15;;;1.00;99.90;;;;;;5046536;28;20286;-46
2023/03/09 04:54:05;;;;;;;39.47;20.02;;;1.00;99.90;;;;;;5051087;28;20467;-45
2023/03/09 04:56:30;;;;;;;39.08;19.27;;;1.00;99.90;;;;;;5051970;28;20094;-46
2023/03/09 04:58:56;;;;;;;37.53;18.27;;;1.00;99.90;;;;;;5052500;28;20123;-47
2023/03/09 05:01:22;;;;;;;39.22;18.70;;;1.00;99.90;;;;;;5052546;28;20027;-45
2023/03/09 05:03:47;;;;;;;33.83;16.85;;;1.00;99.90;;;;;;5052344;28;20112;-46
2023/03/09 05:06:13;;;;;;;34.83;17.58;;;1.00;99.90;;;;;;5050308;28;20112;-46
2023/03/09 05:08:38;;;;;;;31.50;17.52;;;1.00;99.90;;;;;;5052414;28;20020;-46
2023/03/09 05:11:04;;;;;;;32.65;18.17;;;1.00;99.90;;;;;;5052638;28;20104;-47
2023/03/09 05:13:30;;;;;;;31.65;16.80;;;1.00;99.90;;;;;;5052228;28;20025;-45
2023/03/09 05:15:55;;;;;;;30.63;16.17;;;1.00;99.90;;;;;;5052277;28;20108;-46
2023/03/09 05:18:21;;;;;;;30.05;16.08;;;1.00;99.90;;;;;;5052350;28;20041;-46
2023/03/09 05:20:46;;;;;;;30.17;15.57;;;1.00;99.90;;;;;;5051965;28;20025;-46
2023/03/09 05:23:12;;;;;;;34.38;17.35;;;1.00;99.90;;;;;;5050650;28;20033;-45
2023/03/09 05:25:38;;;;;;;33.70;16.98;;;1.00;99.90;;;;;;5051928;28;20021;-48
2023/03/09 05:28:04;;;;;;;32.60;17.42;;;1.00;99.90;;;;;;5048696;28;20036;-45
2023/03/09 05:30:30;;;;;;;33.10;17.98;;;1.00;99.90;;;;;;5050714;28;20047;-39
2023/03/09 05:32:56;;;;;;;31.58;16.20;;;1.00;99.90;;;;;;5050307;28;20029;-39
2023/03/09 05:35:21;;;;;;;33.67;17.38;;;1.00;99.90;;;;;;5051427;28;20029;-45
2023/03/09 05:37:47;;;;;;;32.35;16.38;;;1.10;99.90;;;;;;5051395;28;20108;-45
2023/03/09 05:40:14;;;;;;;30.67;16.25;;;1.00;99.90;;;;;;5051706;28;20025;-45
2023/03/09 05:42:41;;;;;;;32.90;17.92;;;1.00;99.90;;;;;;5051067;28;20025;-45
2023/03/09 05:45:08;;;;;;;33.25;16.67;;;1.10;99.90;;;;;;5050970;28;20048;-46
2023/03/09 05:47:35;;;;;;;30.40;16.17;;;1.10;99.90;;;;;;5051031;28;20449;-45
2023/03/09 05:50:00;;;;;;;31.02;16.13;;;1.00;99.90;;;;;;5051376;28;20025;-46
2023/03/09 05:52:26;;;;;;;33.28;18.02;;;1.00;99.90;;;;;;5051382;28;20032;-45
2023/03/09 05:54:51;;;;;;;31.77;17.02;;;1.00;99.90;;;;;;5051218;28;20025;-48
2023/03/09 05:57:17;;;;;;;33.90;17.67;;;1.00;99.90;;;;;;5051272;28;20025;-45
2023/03/09 05:59:43;;;;;;;35.80;18.20;;;1.00;99.90;;;;;;5050475;28;20091;-48
2023/03/09 06:02:08;;;;;;;34.28;17.83;;;1.00;99.90;;;;;;5050801;28;20159;-46
2023/03/09 06:04:34;;;;;;;36.60;18.63;;;1.10;99.90;;;;;;5048695;28;20401;-45
2023/03/09 06:07:00;;;;;;;35.70;16.98;;;1.00;99.90;;;;;;5051397;28;20474;-47
2023/03/09 06:09:25;;;;;;;33.67;17.50;;;1.10;99.90;;;;;;5051063;28;20143;-46
2023/03/09 06:11:51;;;;;;;36.30;19.20;;;1.10;99.90;;;;;;5050890;28;20043;-45
2023/03/09 06:14:17;;;;;;;34.75;17.83;;;1.10;99.90;;;;;;5050780;28;20025;-45
2023/03/09 06:16:43;;;;;;;35.35;18.58;;;1.10;99.90;;;;;;5050351;28;20025;-45
2023/03/09 06:19:08;;;;;;;37.15;18.70;;;1.10;99.90;;;;;;5069120;28;20032;-45
2023/03/09 06:21:34;;;;;;;36.22;17.90;;;1.10;99.90;;;;;;5052819;28;20028;-45
2023/03/09 06:24:00;;;;;;;36.28;17.90;;;1.10;99.90;;;;;;5070610;28;20692;-46
2023/03/09 06:26:26;;;;;;;35.03;18.63;;;1.10;99.90;;;;;;5066336;28;20165;-45
2023/03/09 06:28:52;;;;;;;34.40;17.40;;;1.10;99.90;;;;;;5058356;28;20016;-45
2023/03/09 06:31:18;;;;;;;35.95;17.73;;;1.10;99.90;;;;;;5070723;28;20367;-45
2023/03/09 06:33:45;;;;;;;37.42;18.73;;;1.10;99.90;;;;;;5070457;28;20025;-45
2023/03/09 06:36:14;;;;;;;33.47;17.55;;;1.10;99.90;;;;;;5070221;28;20398;-45
2023/03/09 06:38:40;;;;;;;33.03;17.00;;;1.10;99.90;;;;;;5070468;28;20039;-46
2023/03/09 06:41:06;;;;;;;32.08;16.25;;;1.10;99.90;;;;;;5069130;28;20028;-47
2023/03/09 06:43:32;;;;;;;35.42;17.25;;;1.10;99.90;;;;;;5068819;28;20109;-45
2023/03/09 06:45:58;;;;;;;40.40;18.17;;;1.20;99.90;;;;;;5070153;28;20461;-45
2023/03/09 06:48:23;;;;;;;29.05;15.70;;;1.10;99.90;;;;;;5069818;28;20070;-45
2023/03/09 06:50:49;;;;;;;31.55;15.95;;;1.20;99.90;;;;;;5068880;28;20028;-46
2023/03/09 06:53:15;;;;;;;33.15;15.90;;;1.20;99.90;;;;;;5070317;28;20056;-45
2023/03/09 06:55:41;;;;;;;30.42;16.15;;;1.20;99.90;;;;;;5070158;28;20024;-47
2023/03/09 06:58:07;;;;;;;31.20;16.38;;;1.30;99.90;;;;;;5069830;28;20081;-45
2023/03/09 07:00:37;;;;;;;31.10;16.27;;;1.30;99.90;;;;;;5070166;28;20067;-45
2023/03/09 07:03:08;;;;;;;32.95;16.55;;;1.30;99.90;;;;;;5070375;28;20078;-45
2023/03/09 07:05:34;;;;;;;31.13;15.15;;;1.30;99.90;;;;;;5069918;28;20534;-47
2023/03/09 07:07:59;;;;;;;29.00;14.70;;;1.40;99.90;;;;;;5069883;28;20024;-45
2023/03/09 07:10:25;;;;;;;33.97;16.33;;;1.40;99.90;;;;;;5069955;28;20028;-47
2023/03/09 07:12:51;;;;;;;28.70;14.80;;;1.40;99.90;;;;;;5069434;28;20040;-45
2023/03/09 07:15:16;;;;;;;28.38;15.05;;;1.40;99.90;;;;;;5069349;28;20035;-45
2023/03/09 07:17:42;;;;;;;27.20;14.80;;;1.40;99.90;;;;;;5066350;28;20039;-48
2023/03/09 07:20:10;;;;;;;25.02;13.38;;;1.50;99.90;;;;;;5049996;28;20366;-45
2023/03/09 07:22:35;;;;;;;27.75;15.77;;;1.50;99.90;;;;;;5050088;28;20132;-46
2023/03/09 07:25:01;;;;;;;33.00;16.13;;;1.50;99.90;;;;;;5066288;28;20017;-46
2023/03/09 07:27:27;;;;;;;27.35;14.15;;;1.60;99.90;;;;;;5069132;28;20016;-46
2023/03/09 07:29:53;;;;;;;31.17;15.63;;;1.60;99.90;;;;;;5068173;28;20043;-45
2023/03/09 07:32:19;;;;;;;28.13;13.85;;;1.60;99.90;;;;;;5048140;28;20033;-48
2023/03/09 07:34:45;;;;;;;29.30;14.35;;;1.60;99.90;;;;;;5048932;28;20017;-47
2023/03/09 07:37:11;;;;;;;28.27;14.43;;;1.60;99.90;;;;;;5048771;28;20544;-48
2023/03/09 07:39:36;;;;;;;27.50;15.05;;;1.70;99.90;;;;;;5049294;28;20458;-46
2023/03/09 07:42:02;;;;;;;34.42;15.43;;;1.70;99.90;;;;;;5048996;28;20021;-46
2023/03/09 07:44:28;;;;;;;25.83;13.93;;;1.70;99.90;;;;;;5050611;28;20112;-46
2023/03/09 07:46:54;;;;;;;34.17;17.02;;;1.70;99.90;;;;;;5069029;28;20032;-45
2023/03/09 07:49:19;;;;;;;32.10;15.90;;;1.70;99.90;;;;;;5069568;28;20503;-44
2023/03/09 07:51:45;;;;;;;32.53;15.82;;;1.70;99.90;;;;;;5069161;28;20060;-44
2023/03/09 07:54:11;;;;;;;26.38;14.27;;;1.80;99.90;;;;;;5069200;28;20032;-46
2023/03/09 07:56:37;;;;;;;30.88;14.48;;;1.80;99.90;;;;;;5068889;28;20055;-44
2023/03/09 07:59:02;;;;;;;29.70;15.30;;;1.80;99.90;;;;;;5069257;28;20024;-44
2023/03/09 08:01:28;;;;;;;28.15;14.95;;;1.80;99.90;;;;;;5068838;28;20047;-45
2023/03/09 08:03:53;;;;;;;26.42;13.50;;;1.80;99.90;;;;;;5069014;28;20029;-47
2023/03/09 08:06:19;;;;;;;29.33;14.88;;;1.80;99.90;;;;;;5069212;28;20033;-45
2023/03/09 08:08:46;;;;;;;25.85;13.48;;;1.70;99.90;;;;;;5069280;28;20063;-47
2023/03/09 08:11:12;;;;;;;28.40;15.05;;;1.70;99.90;;;;;;5069299;28;20032;-46
2023/03/09 08:13:38;;;;;;;28.95;15.52;;;1.70;99.90;;;;;;5068754;28;20031;-45
2023/03/09 08:16:07;;;;;;;28.00;14.88;;;1.80;99.90;;;;;;5051565;28;20043;-44
2023/03/09 08:18:34;;;;;;;26.70;13.80;;;1.80;99.90;;;;;;5048041;28;20394;-44
2023/03/09 08:21:12;;;;;;;31.42;15.63;;;1.80;99.90;;;;;;5047211;28;20091;-42
2023/03/09 08:23:43;;;;;;;28.35;15.40;;;1.80;99.90;;;;;;5048436;28;20272;-44
2023/03/09 08:26:11;;;;;;;30.70;14.48;;;1.80;99.90;;;;;;5048259;28;20025;-44
2023/03/09 08:28:37;;;;;;;29.38;16.92;;;1.80;99.90;;;;;;5045939;28;20100;-45
2023/03/09 08:31:03;;;;;;;31.35;15.15;;;1.80;99.90;;;;;;5049121;28;20025;-44
2023/03/09 08:33:29;;;;;;;28.60;15.63;;;1.80;99.90;;;;;;5048459;28;20048;-44
2023/03/09 08:35:55;;;;;;;31.63;16.13;;;1.80;99.90;;;;;;5048302;28;20040;-38
2023/03/09 08:38:21;;;;;;;29.40;15.65;;;1.80;99.90;;;;;;5048605;28;20029;-44
2023/03/09 08:40:47;;;;;;;35.78;17.05;;;1.80;99.90;;;;;;5048456;28;20036;-43
2023/03/09 08:43:13;;;;;;;32.17;15.95;;;1.80;99.90;;;;;;5048091;28;20505;-38
2023/03/09 08:45:39;;;;;;;27.75;15.73;;;1.80;99.90;;;;;;5048062;28;20021;-38
2023/03/09 08:48:04;;;;;;;26.92;15.63;;;1.80;99.90;;;;;;5046904;28;20033;-38
2023/03/09 08:50:30;;;;;;;29.73;15.45;;;1.80;99.90;;;;;;5047196;28;20028;-38
2023/03/09 08:52:56;;;;;;;30.13;16.55;;;1.90;99.90;;;;;;5047149;28;20028;-38
2023/03/09 08:55:21;;;;;;;28.13;15.52;;;1.90;99.90;;;;;;5047289;28;20104;-38
2023/03/09 08:57:47;;;;;;;31.92;17.80;;;2.00;99.90;;;;;;5047587;28;20114;-38
2023/03/09 09:00:14;;;;;;;32.67;16.20;;;2.10;99.90;;;;;;5047899;28;20111;-38
2023/03/09 09:02:40;;;;;;;29.95;16.70;;;2.10;99.90;;;;;;5046624;28;20107;-38
2023/03/09 09:05:07;;;;;;;32.20;15.55;;;2.10;99.90;;;;;;5047470;28;20019;-38
2023/03/09 09:07:34;;;;;;;27.60;15.15;;;2.00;99.90;;;;;;5047883;28;20028;-38
2023/03/09 09:10:00;;;;;;;29.63;14.98;;;2.10;99.90;;;;;;5047000;28;20324;-38
2023/03/09 09:12:27;;;;;;;28.77;16.60;;;2.10;99.90;;;;;;5047632;28;20403;-39
2023/03/09 09:14:54;;;;;;;29.55;15.82;;;2.10;99.90;;;;;;5047895;28;20572;-39
2023/03/09 09:17:19;;;;;;;28.10;15.65;;;2.10;99.90;;;;;;5047874;28;20494;-39
2023/03/09 09:19:45;;;;;;;30.63;15.52;;;2.10;99.90;;;;;;5052415;28;20108;-39
2023/03/09 09:22:10;;;;;;;31.23;17.17;;;2.00;99.90;;;;;;5048855;28;20100;-39
2023/03/09 09:24:36;;;;;;;33.80;17.50;;;2.00;99.90;;;;;;5046807;28;20112;-39
2023/03/09 09:27:05;;;;;;;32.25;16.90;;;2.10;99.90;;;;;;5055576;28;20028;-39
2023/03/09 09:29:31;;;;;;;31.90;17.30;;;2.20;99.90;;;;;;5047099;28;20025;-38
2023/03/09 09:31:57;;;;;;;34.08;17.38;;;2.30;99.90;;;;;;5047593;28;20029;-38
2023/03/09 09:34:23;;;;;;;28.98;15.93;;;2.30;99.90;;;;;;5049420;28;20021;-38
2023/03/09 09:36:48;;;;;;;27.67;16.08;;;2.40;99.90;;;;;;5068067;28;20040;-38
2023/03/09 09:39:14;;;;;;;33.58;17.35;;;2.30;99.90;;;;;;5059586;28;20029;-38
2023/03/09 09:41:47;;;;;;;31.52;18.05;;;2.30;99.90;;;;;;5051074;28;20516;-38
2023/03/09 09:44:20;;;;;;;30.30;16.48;;;2.40;99.90;;;;;;5051391;28;20017;-39
2023/03/09 09:46:48;;;;;;;27.48;16.33;;;2.30;99.90;;;;;;5050431;28;20025;-38
2023/03/09 09:49:19;;;;;;;30.35;17.15;;;2.40;99.90;;;;;;5050058;28;20070;-38
2023/03/09 09:52:17;;;;;;;34.05;18.25;;;2.40;99.90;;;;;;5050889;28;20020;-39
2023/03/09 09:55:01;;;;;;;28.50;16.15;;;2.50;99.90;;;;;;5031334;28;20101;-39
2023/03/09 09:57:40;;;;;;;29.58;17.10;;;2.50;99.90;;;;;;5038101;28;20100;-39
2023/03/09 10:00:24;;;;;;;31.90;15.88;;;2.50;99.90;;;;;;5066545;28;20490;-39
2023/03/09 10:03:08;;;;;;;30.17;16.27;;;2.50;99.90;;;;;;5042197;28;20526;-39
2023/03/09 10:05:41;;;;;;;29.20;16.20;;;2.60;99.90;;;;;;5042836;28;20025;-45
2023/03/09 10:08:29;;;;;;;30.80;16.35;;;2.60;99.90;;;;;;5049758;28;20203;-46
2023/03/09 10:11:18;;;;;;;28.42;16.17;;;2.70;99.90;;;;;;5029747;28;20033;-48
2023/03/09 10:13:56;;;;;;;28.90;17.27;;;2.70;99.90;;;;;;5044502;28;20041;-45
2023/03/09 10:16:46;;;;;;;28.55;15.77;;;2.80;99.90;;;;;;5069437;28;20378;-45
2023/03/09 10:19:16;;;;;;;29.67;15.65;;;2.80;99.90;;;;;;5062574;28;20025;-45
2023/03/09 10:22:02;;;;;;;30.58;15.90;;;2.80;99.90;;;;;;5048719;28;20025;-48
2023/03/09 10:24:46;;;;;;;30.90;17.10;;;2.90;99.90;;;;;;5043112;28;20074;-46
2023/03/09 10:27:12;;;;;;;30.48;17.65;;;2.80;99.90;;;;;;5048616;28;20028;-45
2023/03/09 10:29:54;;;;;;;29.90;18.05;;;2.90;99.90;;;;;;5049514;28;20482;-45
2023/03/09 10:32:51;;;;;;;30.08;17.15;;;2.90;99.90;;;;;;5050291;28;20021;-46
2023/03/09 10:35:19;;;;;;;29.15;16.88;;;2.90;99.90;;;;;;5049842;28;20095;-45
2023/03/09 10:37:48;;;;;;;25.77;15.38;;;2.90;99.90;;;;;;5056333;28;20040;-45
2023/03/09 10:40:20;;;;;;;30.40;17.38;;;2.90;99.90;;;;;;5051663;28;20024;-46
2023/03/09 10:42:46;;;;;;;32.78;18.23;;;2.90;99.90;;;;;;5049841;28;20017;-45
2023/03/09 10:48:34;;;;;;;28.42;17.15;;;3.00;99.90;;;;;;5048774;28;20091;-45
2023/03/09 10:51:05;;;;;;;29.83;17.10;;;3.00;99.90;;;;;;5069684;28;20016;-46
2023/03/09 10:53:44;;;;;;;33.20;18.83;;;3.00;99.90;;;;;;5068052;28;20071;-45
2023/03/09 10:56:24;;;;;;;31.83;17.75;;;3.10;99.90;;;;;;5068776;28;20103;-45
2023/03/09 10:59:11;;;;;;;28.42;16.67;;;3.10;99.90;;;;;;5049719;28;20043;-45
2023/03/09 11:01:48;;;;;;;28.23;16.42;;;3.20;99.90;;;;;;5049735;28;20033;-44
2023/03/09 11:04:23;;;;;;;29.30;17.17;;;3.30;99.90;;;;;;5049647;28;20060;-44
2023/03/09 11:07:00;;;;;;;31.48;16.73;;;3.30;99.90;;;;;;5049803;28;20450;-45
2023/03/09 11:09:43;;;;;;;27.05;16.40;;;3.30;99.90;;;;;;5050101;28;20028;-45
2023/03/09 11:12:09;;;;;;;29.58;17.10;;;3.30;99.90;;;;;;5050283;28;20028;-45
2023/03/09 11:14:42;;;;;;;28.55;16.60;;;3.30;99.90;;;;;;5049797;28;20021;-45
2023/03/09 11:17:27;;;;;;;29.80;17.13;;;3.30;99.90;;;;;;5050006;28;20082;-45
2023/03/09 11:20:12;;;;;;;31.17;16.45;;;3.30;99.90;;;;;;5029664;28;20041;-45
2023/03/09 11:22:40;;;;;;;29.63;17.15;;;3.40;99.90;;;;;;5029974;28;20529;-46
2023/03/09 11:25:14;;;;;;;32.05;17.70;;;3.20;99.90;;;;;;5029273;28;20034;-45
2023/03/09 11:27:48;;;;;;;31.23;16.75;;;3.30;99.90;;;;;;5052129;28;20017;-45
2023/03/09 11:30:16;;;;;;;33.83;18.58;;;3.30;99.90;;;;;;5060099;28;20506;-45
2023/03/09 11:32:42;;;;;;;30.40;17.15;;;3.30;99.90;;;;;;5051410;28;20013;-45
2023/03/09 11:35:18;;;;;;;29.65;16.35;;;3.40;99.90;;;;;;5050919;28;20025;-45
2023/03/09 11:37:58;;;;;;;29.65;17.08;;;3.40;99.90;;;;;;5046775;28;20434;-45
2023/03/09 11:40:28;;;;;;;29.10;17.23;;;3.30;99.90;;;;;;5047399;28;20390;-45
2023/03/09 11:43:00;;;;;;;30.58;17.67;;;3.30;99.90;;;;;;5048545;28;20123;-45
2023/03/09 11:45:29;;;;;;;32.95;17.92;;;3.30;99.90;;;;;;5045454;28;20547;-45
2023/03/09 11:48:05;;;;;;;32.60;17.05;;;3.30;99.90;;;;;;5050924;28;20621;-45
2023/03/09 11:50:35;;;;;;;35.33;18.27;;;3.20;99.90;;;;;;5052183;28;20017;-45
2023/03/09 11:53:04;;;;;;;31.23;17.25;;;3.20;99.90;;;;;;5047660;28;20165;-45
2023/03/09 11:55:36;;;;;;;31.50;17.30;;;3.20;99.90;;;;;;5049338;28;20045;-46
2023/03/09 11:58:09;;;;;;;29.83;18.08;;;3.30;99.90;;;;;;5061953;28;20108;-46
2023/03/09 12:00:37;;;;;;;29.83;17.40;;;3.20;99.90;;;;;;5053776;28;20029;-46
2023/03/09 12:03:09;;;;;;;37.33;18.05;;;3.20;99.90;;;;;;5048117;28;20021;-45
2023/03/09 12:05:39;;;;;;;29.88;16.90;;;3.30;99.90;;;;;;5048865;28;20047;-45
2023/03/09 12:08:26;;;;;;;31.95;17.88;;;3.20;99.90;;;;;;5050744;28;20025;-45
2023/03/09 12:11:14;;;;;;;32.35;18.30;;;3.30;99.90;;;;;;5047171;28;20033;-45
2023/03/09 12:13:54;;;;;;;30.55;17.40;;;3.30;99.90;;;;;;5054444;28;20048;-47
2023/03/09 12:16:25;;;;;;;33.38;17.80;;;3.40;99.90;;;;;;5046408;28;20391;-45
2023/03/09 12:19:04;;;;;;;29.42;16.70;;;3.30;99.90;;;;;;5047876;28;20037;-45
2023/03/09 12:21:42;;;;;;;30.27;17.33;;;3.30;99.90;;;;;;5041894;28;20024;-45
2023/03/09 12:24:25;;;;;;;31.50;17.13;;;3.30;99.90;;;;;;5045001;28;20018;-48
2023/03/09 12:27:21;;;;;;;38.50;18.08;;;3.40;99.90;;;;;;5048196;28;20580;-45
2023/03/09 12:29:50;;;;;;;31.50;16.40;;;3.30;99.90;;;;;;5056837;28;20021;-47
2023/03/09 12:32:25;;;;;;;30.95;17.10;;;3.30;99.90;;;;;;5053745;28;20021;-45
2023/03/09 12:34:53;;;;;;;33.63;18.20;;;3.30;99.90;;;;;;5054699;28;20406;-45
2023/03/09 12:37:44;;;;;;;33.47;17.42;;;3.30;99.90;;;;;;5046568;28;20033;-44
2023/03/09 12:40:16;;;;;;;35.65;19.52;;;3.30;99.90;;;;;;5044959;28;20036;-45
2023/03/09 12:42:44;;;;;;;31.23;18.58;;;3.30;99.90;;;;;;5040298;28;20022;-45
2023/03/09 12:45:15;;;;;;;33.88;18.98;;;3.30;99.90;;;;;;5048059;28;20025;-45
2023/03/09 12:47:43;;;;;;;33.72;17.98;;;3.30;99.90;;;;;;5048156;28;20029;-45